Domov               UVHVVR             MKGP            O straneh              
ZDRAVSTVENO VARSTVO RASTLIN
  MREŽA AGROMET. POSTAJ
 ► PROGNOSTIČNA OBVESTILA
AGROMETEOROLOŠKI PODATKI -
ARSO
OBVLADOVANJE TVEGANJ ZARADI
NEUGODNIH VREMENSKIH RAZMER
  ► NARAVNE NESREČE
  ► SUŠA/MOČA
  ► NAMAKANJE
  ► ŽLED (gozdarstvo)
KARTOGRAFSKI PRIKAZI
SPLETNE POVEZAVE
PROJEKTI IN PUBLIKACIJE

AGROMETEOROLOŠKA MREŽA: VREMENSKE POSTAJE IN FENOLOŠKA OPAZOVANJA

Pregled podatkov za lokacijo Svečina, meteorološka postaja 24393

Pregled senzorjev na lokaciji

ID Ime Zadnja
vrednost
Datum
zadnje
spremembe
Tip
senzorja
922 Omočenost lista (U) 0 U 15.12.2017 20:30 A730WET
923 Temperatura 2 m (°C) 1,76 °C 15.12.2017 20:30 Generic -40 - +60 °C
924 Relativna vlaga 2 m (% RH) 94,73 % RH 15.12.2017 20:30 Generic 0 - 100 %
925 Padavine (mm) 0,8 mm 15.12.2017 20:30 Generic 0.2 mm

Pregled podatkov zadnjih 24 ur

Zap.
št.
Datum in čas Svečina
Omočenost
lista
Padavine Relativna
vlaga
2
m
Temperatura
2
m
0 15.12.2017 20:30 0 0,8 94,73 1,76
1 15.12.2017 20:00 0 0,4 93,82 2,03
2 15.12.2017 19:30 0 0,2 96,51 2,39
3 15.12.2017 19:00 0 0,8 99,93 2,34
4 15.12.2017 18:30 0 0,4 99,93 2,2
5 15.12.2017 18:00 0 0,2 99,93 2,17
6 15.12.2017 17:30 0 0 99,93 2,2
7 15.12.2017 17:00 0 0 99,93 2,25
8 15.12.2017 16:30 0 0 99,93 2,39
9 15.12.2017 16:00 0 0,2 97,8 2,54
10 15.12.2017 15:30 0 0 96,75 2,64
11 15.12.2017 15:00 0 0 97,66 2,83
12 15.12.2017 14:30 0 0,4 99,39 2,91
13 15.12.2017 14:00 0 1,2 97,31 2,95
14 15.12.2017 13:30 0 0,2 97,63 3,03
15 15.12.2017 13:00 0 0,2 96,85 3,15
16 15.12.2017 12:30 0 0,4 98,05 3,2
17 15.12.2017 12:00 0 0,4 99,17 3,39
18 15.12.2017 11:30 0 0,8 97,88 2,95
19 15.12.2017 11:00 0 1,2 94,09 3,32
20 15.12.2017 10:30 0 0,2 89,55 6,01
21 15.12.2017 10:00 0 0,2 87,94 6,03
22 15.12.2017 09:30 0 0,2 90,38 5,32
23 15.12.2017 09:00 0 0 89,21 5,27
24 15.12.2017 08:30 0 0 89,01 5,25
25 15.12.2017 08:00 0 0,2 86,03 4,37
26 15.12.2017 07:30 0 0 82,66 4,49
27 15.12.2017 07:00 0 0 80,17 5,2
28 15.12.2017 06:30 0 0 98,05 3,08
29 15.12.2017 06:00 0 0 99,93 0,56
30 15.12.2017 05:30 0 0 99,93 -0,22
31 15.12.2017 05:00 0 0 99,93 0,15
32 15.12.2017 04:30 0 0 99,93 0,56
33 15.12.2017 04:00 0 0 99,93 0,85
34 15.12.2017 03:30 0 0 99,93 0,83
35 15.12.2017 03:00 0 0 99,93 0,71
36 15.12.2017 02:30 0 0 99,93 0,93
37 15.12.2017 02:00 0 0 99,93 0,78
38 15.12.2017 01:30 0 0 99,93 1,15
39 15.12.2017 01:00 0 0 99,93 0,83
40 15.12.2017 00:30 0 0 99,93 0,46
41 15.12.2017 00:00 0 0 99,68 0,63
42 14.12.2017 23:30 0 0 99,27 0,85
43 14.12.2017 23:00 0 0 97,95 1,07
44 14.12.2017 22:30 0 0 95,73 1,59
45 14.12.2017 22:00 0 0 95,73 1,51
46 14.12.2017 21:30 0 0 92,75 2,12
47 14.12.2017 21:00 0 0 91,09 2,52
© 2011 Ministrstvo za kmetijstvo, gozdarstvo in prehrano. Vse pravice pridržane.